HKG weather

Hong Kong International Airport
Hong Kong, Hong Kong

Public forecast

Using degrees Celsius for public forecast. Weather courtesy of forecast.io.

METAR (pilot weather report)

Retrieved 2019/01/23 04:00 UTC (13 minutes ago):

VHHH 230400Z 32007KT CAVOK 18/04 Q1022 NOSIG

TAF (pilot weather forecast)

Forecast is more than 12 hours old.

Retrieved 2019/01/22 00:21 UTC (1 day ago):

TAF VHHH 222300Z 2300/2406 04010KT 9000 NSC TX19/2306Z TX20/2406Z TN14/2321Z TEMPO 2303/2309 32010KT 4000 HZ BECMG 2309/2311 10005KT TEMPO 2403/2406 30010KT